Time;durP1;ratioP1;P1;durP2;ratioP2;P2;SDS_P1;SDS_P2;PMS_P1;PMS_P2;Temp;Humidity;BMP_temperature;BMP_pressure;BME280_temperature;BME280_humidity;BME280_pressure;Samples;Min_cycle;Max_cycle;Signal;HPM_P1;HPM_P2
2023/04/01 00:00:57;;;;;;;0.80;0.80;;;-5.30;99.90;;;;;;4996852;28;20226;-69
2023/04/01 00:03:25;;;;;;;0.93;0.93;;;-5.40;99.90;;;;;;4993388;28;20195;-68
2023/04/01 00:05:51;;;;;;;0.80;0.80;;;-5.30;99.90;;;;;;4994181;28;20290;-68
2023/04/01 00:08:17;;;;;;;0.70;0.70;;;-5.20;99.90;;;;;;4995328;28;20630;-69
2023/04/01 00:10:43;;;;;;;0.80;0.80;;;-5.30;99.90;;;;;;5003004;28;20694;-68
2023/04/01 00:13:09;;;;;;;0.80;0.80;;;-5.30;99.90;;;;;;5014882;28;20210;-68
2023/04/01 00:15:35;;;;;;;0.70;0.70;;;-5.30;99.90;;;;;;5013471;28;20198;-68
2023/04/01 00:18:01;;;;;;;0.80;0.80;;;-5.40;99.90;;;;;;5014806;28;20658;-68
2023/04/01 00:20:28;;;;;;;0.90;0.90;;;-5.30;99.90;;;;;;5014541;28;20240;-68
2023/04/01 00:22:54;;;;;;;0.80;0.80;;;-5.30;99.90;;;;;;5013551;28;20207;-68
2023/04/01 00:25:20;;;;;;;0.80;0.80;;;-5.30;99.90;;;;;;5014082;28;20233;-70
2023/04/01 00:27:47;;;;;;;0.90;0.90;;;-5.40;99.90;;;;;;4997010;28;20210;-69
2023/04/01 00:30:13;;;;;;;0.90;0.90;;;-5.40;99.90;;;;;;5014057;28;20215;-68
2023/04/01 00:32:38;;;;;;;0.70;0.70;;;-5.30;99.90;;;;;;5014610;28;20191;-68
2023/04/01 00:35:04;;;;;;;0.90;0.90;;;-5.40;99.90;;;;;;5014458;28;20206;-68
2023/04/01 00:37:30;;;;;;;0.80;0.80;;;-5.50;99.90;;;;;;5014108;28;20199;-68
2023/04/01 00:39:57;;;;;;;0.80;0.80;;;-5.60;99.90;;;;;;5014253;28;20277;-68
2023/04/01 00:42:23;;;;;;;0.83;0.83;;;-5.70;99.90;;;;;;5014238;28;20631;-68
2023/04/01 00:44:52;;;;;;;0.80;0.80;;;-5.50;99.90;;;;;;5014365;28;20210;-68
2023/04/01 00:47:18;;;;;;;0.70;0.70;;;-5.50;99.90;;;;;;5014034;28;20261;-69
2023/04/01 00:49:53;;;;;;;0.70;0.70;;;-5.40;99.90;;;;;;5014303;28;20305;-68
2023/04/01 00:52:24;;;;;;;0.60;0.60;;;-5.30;99.90;;;;;;5014300;28;20562;-69
2023/04/01 00:54:56;;;;;;;0.90;0.90;;;-5.20;99.90;;;;;;5014310;28;20199;-68
2023/04/01 00:57:30;;;;;;;0.77;0.77;;;-4.90;99.90;;;;;;5014034;28;20195;-69
2023/04/01 00:59:56;;;;;;;0.87;0.87;;;-4.80;99.90;;;;;;5014294;28;20202;-68
2023/04/01 01:02:22;;;;;;;0.80;0.80;;;-4.80;99.90;;;;;;5044343;23;20284;-73
2023/04/01 01:04:48;;;;;;;0.90;0.90;;;-4.80;99.90;;;;;;5013200;28;20564;-74
2023/04/01 01:07:14;;;;;;;0.80;0.80;;;-4.80;99.90;;;;;;5013381;28;20198;-74
2023/04/01 01:10:02;;;;;;;0.70;0.70;;;-4.70;99.90;;;;;;5013123;28;20211;-73
2023/04/01 01:12:37;;;;;;;0.88;0.88;;;-4.70;99.90;;;;;;5013254;28;20194;-73
2023/04/01 01:15:21;;;;;;;0.88;0.88;;;-4.60;99.90;;;;;;5013793;28;20194;-74
2023/04/01 01:17:59;;;;;;;0.80;0.80;;;-4.50;99.90;;;;;;5013459;28;20539;-73
2023/04/01 01:20:43;;;;;;;0.93;0.93;;;-4.40;99.90;;;;;;4995486;28;20677;-73
2023/04/01 01:23:43;;;;;;;0.87;0.87;;;-4.30;99.90;;;;;;5013433;28;20199;-74
2023/04/01 01:26:08;;;;;;;0.88;0.88;;;-4.30;99.90;;;;;;5013342;28;20201;-73
2023/04/01 01:28:57;;;;;;;0.90;0.90;;;-4.30;99.90;;;;;;5013017;28;20281;-74
2023/04/01 01:31:24;;;;;;;0.80;0.80;;;-4.30;99.90;;;;;;5013111;28;20198;-73
2023/04/01 01:33:59;;;;;;;0.80;0.80;;;-4.40;99.90;;;;;;5013359;28;20191;-73
2023/04/01 01:36:30;;;;;;;0.77;0.77;;;-4.40;99.90;;;;;;5011781;28;20280;-73
2023/04/01 01:38:57;;;;;;;0.70;0.70;;;-4.40;99.90;;;;;;5013369;28;20195;-74
2023/04/01 01:41:26;;;;;;;0.90;0.90;;;-4.50;99.90;;;;;;5012998;28;20226;-74
2023/04/01 01:43:57;;;;;;;0.80;0.80;;;-4.50;99.90;;;;;;5012131;28;20203;-74
2023/04/01 01:46:25;;;;;;;0.60;0.60;;;-4.40;99.90;;;;;;5013114;28;20190;-73
2023/04/01 01:48:53;;;;;;;0.90;0.90;;;-4.40;99.90;;;;;;5013301;28;20610;-73
2023/04/01 01:51:21;;;;;;;0.83;0.83;;;-4.30;99.90;;;;;;5013179;28;20213;-73
2023/04/01 01:53:46;;;;;;;0.70;0.70;;;-4.20;99.90;;;;;;4995009;28;20190;-73
2023/04/01 01:56:13;;;;;;;0.70;0.70;;;-4.20;99.90;;;;;;5012864;28;20195;-73
2023/04/01 01:58:42;;;;;;;0.67;0.67;;;-4.20;99.90;;;;;;5000540;28;20208;-74
2023/04/01 02:01:34;;;;;;;0.73;0.73;;;-4.30;99.90;;;;;;5026196;28;20190;-74
2023/04/01 02:04:04;;;;;;;0.80;0.80;;;-4.30;99.90;;;;;;5003460;28;20214;-74
2023/04/01 02:06:36;;;;;;;0.70;0.70;;;-4.20;99.90;;;;;;5018796;28;20202;-74
2023/04/01 02:09:06;;;;;;;0.83;0.83;;;-4.20;99.90;;;;;;5018282;28;20210;-74
2023/04/01 02:11:43;;;;;;;0.80;0.80;;;-4.20;99.90;;;;;;5019488;28;20269;-73
2023/04/01 02:14:15;;;;;;;1.17;1.10;;;-4.10;99.90;;;;;;5001854;28;20209;-74
2023/04/01 02:17:01;;;;;;;0.80;0.80;;;-4.00;99.90;;;;;;5001799;28;20199;-73
2023/04/01 02:19:35;;;;;;;1.20;1.10;;;-3.90;99.90;;;;;;5019365;28;20218;-73
2023/04/01 02:22:04;;;;;;;0.73;0.73;;;-4.00;99.90;;;;;;5001772;28;20206;-73
2023/04/01 02:24:33;;;;;;;0.77;0.77;;;-4.10;99.90;;;;;;5019402;28;20607;-74
2023/04/01 02:26:59;;;;;;;0.80;0.80;;;-4.10;99.90;;;;;;5002139;28;20238;-74
2023/04/01 02:29:28;;;;;;;0.70;0.70;;;-4.20;99.90;;;;;;5001070;28;20210;-73
2023/04/01 02:31:55;;;;;;;0.75;0.75;;;-4.20;99.90;;;;;;5001871;28;20195;-73
2023/04/01 02:34:23;;;;;;;0.70;0.70;;;-4.20;99.90;;;;;;5019499;28;20222;-74
2023/04/01 02:36:50;;;;;;;0.80;0.80;;;-4.30;99.90;;;;;;5001211;28;20712;-73
2023/04/01 02:39:26;;;;;;;0.80;0.80;;;-4.30;99.90;;;;;;5019463;28;20203;-75
2023/04/01 02:41:52;;;;;;;0.80;0.80;;;-4.30;99.90;;;;;;5001699;28;20201;-73
2023/04/01 02:44:18;;;;;;;0.80;0.80;;;-4.30;99.90;;;;;;5019289;28;20191;-74
2023/04/01 02:46:44;;;;;;;0.70;0.70;;;-4.30;99.90;;;;;;5001706;28;20739;-73
2023/04/01 02:49:10;;;;;;;0.75;0.75;;;-4.20;99.90;;;;;;5019314;28;20238;-73
2023/04/01 02:51:36;;;;;;;0.80;0.80;;;-4.30;99.90;;;;;;5011680;28;20709;-74
2023/04/01 02:54:02;;;;;;;0.70;0.70;;;-4.30;99.90;;;;;;4999681;28;20195;-74
2023/04/01 02:56:28;;;;;;;0.80;0.80;;;-4.30;99.90;;;;;;4999024;28;20273;-74
2023/04/01 02:59:00;;;;;;;0.80;0.80;;;-4.20;99.90;;;;;;5001853;28;20276;-74
2023/04/01 03:01:29;;;;;;;0.90;0.90;;;-4.20;99.90;;;;;;5008315;28;20248;-74
2023/04/01 03:03:55;;;;;;;0.80;0.80;;;-4.30;99.90;;;;;;5030906;28;20221;-74
2023/04/01 03:06:20;;;;;;;0.70;0.70;;;-4.30;99.90;;;;;;5020958;28;20675;-73
2023/04/01 03:08:46;;;;;;;0.80;0.80;;;-4.40;99.90;;;;;;5038308;28;20201;-73
2023/04/01 03:11:13;;;;;;;0.80;0.80;;;-4.40;99.90;;;;;;5021947;28;20210;-74
2023/04/01 03:13:39;;;;;;;0.80;0.80;;;-4.40;99.90;;;;;;4998089;28;20202;-74
2023/04/01 03:16:05;;;;;;;0.77;0.77;;;-4.50;99.90;;;;;;5014889;28;20251;-73
2023/04/01 03:18:30;;;;;;;0.70;0.70;;;-4.50;99.90;;;;;;5014407;28;20202;-74
2023/04/01 03:20:56;;;;;;;0.80;0.80;;;-4.60;99.90;;;;;;5014576;28;20614;-73
2023/04/01 03:23:28;;;;;;;0.80;0.80;;;-4.60;99.90;;;;;;4984216;28;20234;-74
2023/04/01 03:25:57;;;;;;;0.80;0.80;;;-4.60;99.90;;;;;;5008538;28;20257;-74
2023/04/01 03:28:22;;;;;;;0.80;0.80;;;-4.70;99.90;;;;;;5015458;28;20607;-75
2023/04/01 03:30:48;;;;;;;0.77;0.77;;;-4.70;99.90;;;;;;5014676;28;20242;-74
2023/04/01 03:33:17;;;;;;;0.80;0.80;;;-4.70;99.90;;;;;;5015533;28;20187;-75
2023/04/01 03:35:42;;;;;;;0.80;0.80;;;-4.70;99.90;;;;;;4997617;28;20562;-75
2023/04/01 03:38:08;;;;;;;0.83;0.83;;;-4.70;99.90;;;;;;5015284;28;20195;-75
2023/04/01 03:40:38;;;;;;;0.80;0.80;;;-4.70;99.90;;;;;;5014987;28;20234;-75
2023/04/01 03:43:08;;;;;;;0.80;0.80;;;-4.70;99.90;;;;;;5015489;28;20246;-74
2023/04/01 03:45:43;;;;;;;0.80;0.80;;;-4.80;99.90;;;;;;5015136;28;20286;-73
2023/04/01 03:48:08;;;;;;;0.80;0.80;;;-4.80;99.90;;;;;;5005448;28;20195;-73
2023/04/01 03:50:37;;;;;;;0.80;0.80;;;-4.80;99.90;;;;;;4995550;28;20265;-75
2023/04/01 03:53:02;;;;;;;0.70;0.70;;;-4.90;99.90;;;;;;4995753;28;20199;-75
2023/04/01 03:55:28;;;;;;;0.80;0.80;;;-4.90;99.90;;;;;;4984907;28;20221;-75
2023/04/01 03:57:54;;;;;;;0.90;0.90;;;-4.90;99.90;;;;;;5014994;28;20199;-73
2023/04/01 04:00:20;;;;;;;0.80;0.80;;;-4.90;99.90;;;;;;5014019;28;20205;-75
2023/04/01 04:02:48;;;;;;;0.80;0.80;;;-4.90;99.90;;;;;;5014455;28;20231;-75
2023/04/01 04:05:20;;;;;;;0.80;0.80;;;-4.90;99.90;;;;;;5015007;28;20280;-75
2023/04/01 04:07:46;;;;;;;0.70;0.70;;;-4.90;99.90;;;;;;5014951;28;20539;-76
2023/04/01 04:10:15;;;;;;;0.80;0.80;;;-4.90;99.90;;;;;;5014927;28;20225;-75
2023/04/01 04:12:41;;;;;;;0.80;0.80;;;-4.90;99.90;;;;;;5014683;28;20581;-75
2023/04/01 04:15:07;;;;;;;0.90;0.90;;;-4.90;99.90;;;;;;5014887;28;20191;-74
2023/04/01 04:17:33;;;;;;;0.80;0.80;;;-4.80;99.90;;;;;;5014578;28;20194;-74
2023/04/01 04:19:59;;;;;;;0.80;0.80;;;-4.90;99.90;;;;;;5014344;28;20286;-75
2023/04/01 04:22:25;;;;;;;0.90;0.90;;;-4.90;99.90;;;;;;5004331;28;20215;-74
2023/04/01 04:24:50;;;;;;;0.80;0.80;;;-4.80;99.90;;;;;;4998436;28;20205;-74
2023/04/01 04:27:16;;;;;;;0.83;0.83;;;-4.80;99.90;;;;;;5014642;28;20205;-75
2023/04/01 04:29:42;;;;;;;0.80;0.80;;;-4.70;99.90;;;;;;5014104;28;20290;-75
2023/04/01 04:32:08;;;;;;;0.80;0.80;;;-4.70;99.90;;;;;;5014198;28;20223;-75
2023/04/01 04:34:34;;;;;;;0.70;0.70;;;-4.80;99.90;;;;;;5014086;28;20286;-75
2023/04/01 04:37:03;;;;;;;0.80;0.80;;;-4.80;99.90;;;;;;5014195;28;20215;-75
2023/04/01 04:39:29;;;;;;;0.90;0.90;;;-4.80;99.90;;;;;;5014263;28;20199;-74
2023/04/01 04:41:55;;;;;;;0.80;0.80;;;-4.80;99.90;;;;;;4997199;28;20211;-74
2023/04/01 04:44:20;;;;;;;0.70;0.70;;;-4.80;99.90;;;;;;5004753;28;20207;-75
2023/04/01 04:46:46;;;;;;;0.77;0.77;;;-4.80;99.90;;;;;;4993251;28;20195;-74
2023/04/01 04:49:12;;;;;;;0.80;0.80;;;-4.70;99.90;;;;;;4993150;28;20350;-75
2023/04/01 04:51:38;;;;;;;0.87;0.87;;;-4.70;99.90;;;;;;5000561;28;20194;-75
2023/04/01 04:54:07;;;;;;;0.70;0.70;;;-4.80;99.90;;;;;;5014354;28;20198;-76
2023/04/01 04:56:33;;;;;;;0.80;0.80;;;-4.70;99.90;;;;;;5012870;28;20200;-75
2023/04/01 04:58:59;;;;;;;0.70;0.70;;;-4.70;99.90;;;;;;5014315;28;20658;-74
2023/04/01 05:01:25;;;;;;;0.70;0.70;;;-4.60;99.90;;;;;;4995519;28;20214;-74
2023/04/01 05:03:51;;;;;;;0.90;0.90;;;-4.60;99.90;;;;;;5013206;28;20215;-75
2023/04/01 05:06:18;;;;;;;0.80;0.80;;;-4.50;99.90;;;;;;5012611;28;20195;-74
2023/04/01 05:08:45;;;;;;;0.70;0.70;;;-4.40;99.90;;;;;;5013933;28;20199;-76
2023/04/01 05:11:22;;;;;;;0.90;0.90;;;-4.40;99.90;;;;;;5012643;28;20195;-75
2023/04/01 05:13:48;;;;;;;0.80;0.80;;;-4.40;99.90;;;;;;5013677;28;20665;-75
2023/04/01 05:16:19;;;;;;;0.80;0.80;;;-4.30;99.90;;;;;;4996089;28;20257;-74
2023/04/01 05:18:48;;;;;;;0.80;0.80;;;-4.20;99.90;;;;;;5003966;28;20194;-74
2023/04/01 05:21:15;;;;;;;0.70;0.70;;;-4.10;99.90;;;;;;4994037;28;20215;-75
2023/04/01 05:23:41;;;;;;;0.90;0.90;;;-4.00;99.90;;;;;;4993962;28;20195;-75
2023/04/01 05:26:13;;;;;;;0.77;0.77;;;-3.90;99.90;;;;;;5003734;28;20286;-75
2023/04/01 05:28:40;;;;;;;0.88;0.88;;;-3.90;99.90;;;;;;4993815;28;20188;-75
2023/04/01 05:31:07;;;;;;;0.70;0.70;;;-3.90;99.90;;;;;;4992585;28;20306;-76
2023/04/01 05:33:33;;;;;;;0.80;0.80;;;-3.80;99.90;;;;;;5005836;28;20210;-74
2023/04/01 05:36:07;;;;;;;0.80;0.80;;;-3.70;99.90;;;;;;5013559;28;20202;-74
2023/04/01 05:38:33;;;;;;;0.90;0.90;;;-3.70;99.90;;;;;;5013168;28;20197;-74
2023/04/01 05:41:00;;;;;;;0.80;0.80;;;-3.60;99.90;;;;;;5004598;28;20349;-75
2023/04/01 05:43:30;;;;;;;0.80;0.80;;;-3.60;99.90;;;;;;5011824;28;20199;-76
2023/04/01 05:45:58;;;;;;;0.70;0.70;;;-3.50;99.90;;;;;;4995995;28;20198;-75
2023/04/01 05:48:24;;;;;;;0.75;0.75;;;-3.40;99.90;;;;;;4995359;28;20203;-75
2023/04/01 05:50:53;;;;;;;0.60;0.60;;;-3.40;99.90;;;;;;5011804;28;20214;-74
2023/04/01 05:53:19;;;;;;;1.45;1.35;;;-3.30;99.90;;;;;;5012593;28;20657;-76
2023/04/01 05:55:45;;;;;;;0.80;0.80;;;-3.30;99.90;;;;;;5013312;28;20191;-75
2023/04/01 05:58:11;;;;;;;0.80;0.80;;;-3.20;99.90;;;;;;5013052;28;20542;-75
2023/04/01 06:00:36;;;;;;;0.70;0.70;;;-3.10;99.90;;;;;;5011705;28;20233;-75
2023/04/01 06:03:02;;;;;;;0.70;0.70;;;-3.00;99.90;;;;;;5012555;28;20317;-75
2023/04/01 06:05:30;;;;;;;0.80;0.80;;;-3.00;99.90;;;;;;5012915;28;20209;-74
2023/04/01 06:08:05;;;;;;;0.90;0.90;;;-2.90;99.90;;;;;;5011855;28;20199;-75
2023/04/01 06:10:44;;;;;;;0.80;0.80;;;-2.90;99.90;;;;;;5013036;28;20699;-75
2023/04/01 06:13:40;;;;;;;0.80;0.80;;;-2.80;99.90;;;;;;5011832;28;20640;-74
2023/04/01 06:16:28;;;;;;;0.70;0.70;;;-2.70;99.90;;;;;;5011602;28;20573;-75
2023/04/01 06:19:31;;;;;;;0.80;0.80;;;-2.60;99.90;;;;;;5011695;28;20201;-74
2023/04/01 06:21:57;;;;;;;0.75;0.75;;;-2.50;99.90;;;;;;5012260;28;20195;-74
2023/04/01 06:24:29;;;;;;;0.60;0.60;;;-2.40;99.90;;;;;;5012611;28;20187;-74
2023/04/01 06:27:37;;;;;;;0.70;0.70;;;-2.40;99.90;;;;;;5013114;28;20191;-75
2023/04/01 06:30:38;;;;;;;0.73;0.73;;;-2.20;99.90;;;;;;4993859;28;20223;-75
2023/04/01 06:33:12;;;;;;;0.70;0.70;;;-2.10;99.90;;;;;;5010371;28;20219;-75
2023/04/01 06:35:53;;;;;;;0.80;0.80;;;-2.00;99.90;;;;;;4994965;28;20685;-74
2023/04/01 06:38:39;;;;;;;0.80;0.80;;;-1.90;99.90;;;;;;4992776;28;20192;-75
2023/04/01 06:41:33;;;;;;;0.80;0.80;;;-1.80;99.90;;;;;;4992227;28;20269;-74
2023/04/01 06:44:30;;;;;;;0.60;0.60;;;-1.60;99.90;;;;;;4996518;28;20566;-74
2023/04/01 06:47:14;;;;;;;1.30;1.20;;;-1.50;99.90;;;;;;5016455;28;20219;-74
2023/04/01 06:49:56;;;;;;;0.70;0.70;;;-1.50;99.90;;;;;;4998798;28;20700;-75
2023/04/01 06:52:39;;;;;;;1.23;1.13;;;-1.40;99.90;;;;;;5016027;28;20191;-74
2023/04/01 06:55:30;;;;;;;0.77;0.77;;;-1.40;99.90;;;;;;5016646;28;20190;-75
2023/04/01 06:57:59;;;;;;;0.75;0.75;;;-1.20;99.90;;;;;;5017467;28;20191;-76
2023/04/01 07:00:37;;;;;;;0.70;0.70;;;-1.10;99.90;;;;;;5016422;28;20207;-75
2023/04/01 07:03:06;;;;;;;0.60;0.60;;;-1.00;99.90;;;;;;5016887;28;20218;-73
2023/04/01 07:05:34;;;;;;;1.23;1.13;;;-0.90;99.90;;;;;;5015991;28;20692;-72
2023/04/01 07:08:05;;;;;;;0.70;0.70;;;-0.80;99.90;;;;;;5016184;28;20554;-75
2023/04/01 07:11:01;;;;;;;0.80;0.80;;;-0.70;99.90;;;;;;5012257;28;20588;-75
2023/04/01 07:14:01;;;;;;;0.60;0.60;;;-0.40;99.90;;;;;;4994804;28;20195;-77
2023/04/01 07:16:41;;;;;;;1.40;1.30;;;-0.30;99.90;;;;;;4995006;28;20242;-76
2023/04/01 07:19:15;;;;;;;1.40;1.30;;;-0.20;99.90;;;;;;4998496;28;20227;-82
2023/04/01 07:22:01;;;;;;;1.17;1.08;;;0.00;99.90;;;;;;4995967;28;20199;-79
2023/04/01 07:24:32;;;;;;;0.80;0.80;;;0.20;99.90;;;;;;4997048;28;20211;-77
2023/04/01 07:27:00;;;;;;;0.63;0.63;;;0.40;99.90;;;;;;5025031;28;20211;-81
2023/04/01 07:29:26;;;;;;;5.75;1.73;;;0.50;99.90;;;;;;5022309;28;20685;-77
2023/04/01 07:32:30;;;;;;;1.42;1.33;;;0.80;99.90;;;;;;5017441;28;20278;-77
2023/04/01 07:35:20;;;;;;;3.10;1.52;;;0.90;99.90;;;;;;4998090;28;20307;-79
2023/04/01 07:38:18;;;;;;;0.75;0.75;;;1.10;99.90;;;;;;4996744;28;20242;-78
2023/04/01 07:41:00;;;;;;;0.65;0.65;;;1.10;99.90;;;;;;5005188;28;20199;-74
2023/04/01 07:43:35;;;;;;;0.73;0.73;;;1.30;99.90;;;;;;5015525;28;20203;-77
2023/04/01 07:46:21;;;;;;;0.70;0.70;;;1.40;99.90;;;;;;5015578;28;20205;-73
2023/04/01 07:48:55;;;;;;;0.60;0.60;;;1.30;99.90;;;;;;5017630;28;20249;-79
2023/04/01 07:52:08;;;;;;;0.68;0.68;;;1.50;99.90;;;;;;5018562;28;20198;-75
2023/04/01 07:54:45;;;;;;;0.60;0.60;;;1.60;99.90;;;;;;4958147;28;20675;-78
2023/04/01 07:57:46;;;;;;;0.50;0.50;;;1.80;99.90;;;;;;4999630;28;20218;-74
2023/04/01 08:00:51;;;;;;;0.70;0.70;;;2.00;99.90;;;;;;5019448;28;20248;-76
2023/04/01 08:03:19;;;;;;;0.70;0.70;;;2.20;99.90;;;;;;4998540;28;20244;-75
2023/04/01 08:06:15;;;;;;;0.60;0.60;;;2.40;99.90;;;;;;5016352;28;20241;-76
2023/04/01 08:08:47;;;;;;;0.70;0.70;;;2.60;99.90;;;;;;4994218;28;20718;-77
2023/04/01 08:11:28;;;;;;;0.80;0.80;;;2.70;99.90;;;;;;4994500;28;20226;-76
2023/04/01 08:14:12;;;;;;;0.70;0.70;;;2.90;99.90;;;;;;4997119;28;20651;-74
2023/04/01 08:16:52;;;;;;;0.70;0.70;;;2.90;99.90;;;;;;4996112;28;20712;-78
2023/04/01 08:19:42;;;;;;;0.70;0.70;;;3.00;99.90;;;;;;4993817;28;20678;-75
2023/04/01 08:22:17;;;;;;;0.63;0.63;;;3.30;99.90;;;;;;4995168;28;20677;-75
2023/04/01 08:24:46;;;;;;;0.60;0.60;;;3.40;99.90;;;;;;4996508;28;20202;-77
2023/04/01 08:27:23;;;;;;;0.80;0.80;;;3.70;99.90;;;;;;4997409;28;20265;-77
2023/04/01 08:30:30;;;;;;;0.70;0.70;;;3.80;99.90;;;;;;5015187;28;20305;-77
2023/04/01 08:33:10;;;;;;;0.80;0.80;;;3.90;99.90;;;;;;5015104;28;20206;-79
2023/04/01 08:36:03;;;;;;;0.90;0.90;;;4.30;99.70;;;;;;4997938;28;20202;-77
2023/04/01 08:38:39;;;;;;;0.80;0.80;;;4.40;99.90;;;;;;4979404;28;20633;-76
2023/04/01 08:41:43;;;;;;;0.85;0.80;;;4.70;99.30;;;;;;4995007;28;20666;-76
2023/04/01 08:44:30;;;;;;;0.60;0.60;;;4.90;98.90;;;;;;4993780;28;20610;-76
2023/04/01 08:47:08;;;;;;;1.30;1.20;;;5.20;97.60;;;;;;4998550;28;20196;-79
2023/04/01 08:50:06;;;;;;;0.70;0.70;;;5.10;97.40;;;;;;4995440;28;20235;-75
2023/04/01 08:52:44;;;;;;;0.60;0.60;;;5.00;97.20;;;;;;4998240;28;20211;-76
2023/04/01 08:55:13;;;;;;;0.60;0.60;;;5.20;97.00;;;;;;4995595;28;20207;-76
2023/04/01 08:57:48;;;;;;;0.70;0.70;;;5.40;97.20;;;;;;4993897;28;20242;-78
2023/04/01 09:00:41;;;;;;;0.70;0.70;;;5.50;96.80;;;;;;4995270;28;20658;-76
2023/04/01 09:03:35;;;;;;;0.52;0.52;;;5.80;96.50;;;;;;4978187;28;20223;-79
2023/04/01 09:06:25;;;;;;;0.60;0.60;;;6.00;96.00;;;;;;4997522;28;20199;-78
2023/04/01 09:09:17;;;;;;;0.70;0.70;;;6.20;96.60;;;;;;4999148;28;20604;-77
2023/04/01 09:11:43;;;;;;;0.68;0.68;;;6.20;94.70;;;;;;4994904;28;20200;-75
2023/04/01 09:14:44;;;;;;;0.60;0.60;;;6.40;95.40;;;;;;4994390;28;20666;-76
2023/04/01 09:17:38;;;;;;;0.65;0.65;;;6.50;96.00;;;;;;4994597;28;20187;-77
2023/04/01 09:20:26;;;;;;;0.75;0.75;;;7.00;95.20;;;;;;4994977;28;20250;-79
2023/04/01 09:23:19;;;;;;;0.65;0.65;;;7.20;94.70;;;;;;5017366;28;20273;-76
2023/04/01 09:26:04;;;;;;;0.70;0.70;;;7.40;93.00;;;;;;5005574;28;20555;-77
2023/04/01 09:29:11;;;;;;;0.60;0.60;;;7.20;94.10;;;;;;4995299;28;20234;-76
2023/04/01 09:32:14;;;;;;;0.60;0.60;;;7.60;94.10;;;;;;4995507;28;20203;-76
2023/04/01 09:34:53;;;;;;;0.60;0.60;;;7.80;92.70;;;;;;4993226;28;20207;-77
2023/04/01 09:37:31;;;;;;;0.70;0.70;;;7.90;91.70;;;;;;4979086;28;20690;-78
2023/04/01 09:40:12;;;;;;;0.60;0.60;;;7.70;92.20;;;;;;4994458;28;20246;-76
2023/04/01 09:43:01;;;;;;;0.70;0.70;;;7.50;92.20;;;;;;4994833;28;20195;-80
2023/04/01 09:45:47;;;;;;;0.60;0.60;;;7.60;93.20;;;;;;4994454;28;20670;-79
2023/04/01 09:48:33;;;;;;;0.60;0.60;;;7.90;91.90;;;;;;4992078;28;20231;-78
2023/04/01 09:51:11;;;;;;;0.70;0.70;;;7.90;91.90;;;;;;4995496;28;20273;-80
2023/04/01 09:53:56;;;;;;;0.70;0.70;;;8.20;91.00;;;;;;4993878;28;20622;-80
2023/04/01 09:56:34;;;;;;;0.60;0.60;;;8.40;92.30;;;;;;4976733;28;20663;-81
2023/04/01 09:59:24;;;;;;;0.70;0.70;;;8.70;91.70;;;;;;4995740;28;20191;-78
2023/04/01 10:02:25;;;;;;;0.60;0.60;;;9.30;90.80;;;;;;5013493;28;20278;-75
2023/04/01 10:05:22;;;;;;;0.70;0.70;;;9.50;89.10;;;;;;5013712;28;20198;-77
2023/04/01 10:08:24;;;;;;;0.63;0.63;;;9.60;87.50;;;;;;5012401;28;20557;-78
2023/04/01 10:11:08;;;;;;;0.60;0.60;;;9.60;90.20;;;;;;5012339;28;20652;-81
2023/04/01 10:13:58;;;;;;;0.70;0.70;;;9.50;90.20;;;;;;5013068;28;20187;-80
2023/04/01 10:16:27;;;;;;;0.60;0.60;;;9.40;87.80;;;;;;5012120;28;20195;-79
2023/04/01 10:19:20;;;;;;;0.70;0.70;;;9.60;88.50;;;;;;5014336;28;20561;-81
2023/04/01 10:22:07;;;;;;;0.60;0.60;;;9.70;86.80;;;;;;5008611;28;20195;-77
2023/04/01 10:24:56;;;;;;;0.60;0.60;;;9.40;88.20;;;;;;5000252;28;20196;-78
2023/04/01 10:27:37;;;;;;;0.50;0.50;;;9.40;89.60;;;;;;5016665;28;20681;-77
2023/04/01 10:30:21;;;;;;;0.60;0.60;;;9.70;85.60;;;;;;5016969;28;20218;-76
2023/04/01 10:33:01;;;;;;;0.60;0.60;;;9.90;89.00;;;;;;5016889;28;20202;-76
2023/04/01 10:36:04;;;;;;;0.70;0.70;;;10.20;87.10;;;;;;4999001;28;20344;-75
2023/04/01 10:38:36;;;;;;;0.55;0.55;;;10.30;85.00;;;;;;4998757;28;20198;-76
2023/04/01 10:41:40;;;;;;;0.60;0.60;;;9.80;86.00;;;;;;5016866;28;20277;-76
2023/04/01 10:44:12;;;;;;;0.60;0.60;;;9.70;87.40;;;;;;5016438;28;20222;-76
2023/04/01 10:46:40;;;;;;;0.88;0.82;;;9.70;85.90;;;;;;4998775;28;20195;-76
2023/04/01 10:49:46;;;;;;;0.60;0.60;;;10.10;86.30;;;;;;5016676;28;20213;-77
2023/04/01 10:52:14;;;;;;;0.60;0.60;;;10.20;86.70;;;;;;5016264;28;20191;-76
2023/04/01 10:54:58;;;;;;;0.60;0.60;;;10.30;83.70;;;;;;4998675;28;20210;-75
2023/04/01 10:57:37;;;;;;;0.50;0.50;;;10.30;84.10;;;;;;4997269;28;20553;-74
2023/04/01 11:00:41;;;;;;;0.60;0.60;;;10.20;82.80;;;;;;4995189;28;20203;-75
2023/04/01 11:03:41;;;;;;;0.60;0.60;;;9.70;87.00;;;;;;4992853;28;20235;-75
2023/04/01 11:06:50;;;;;;;0.50;0.50;;;9.80;86.90;;;;;;4996511;28;20200;-75
2023/04/01 11:09:44;;;;;;;0.55;0.55;;;10.20;83.80;;;;;;4995450;28;20224;-75
2023/04/01 11:12:15;;;;;;;0.60;0.60;;;10.00;84.30;;;;;;4996911;28;20246;-74
2023/04/01 11:15:29;;;;;;;0.60;0.60;;;9.80;83.80;;;;;;4995261;28;20200;-73
2023/04/01 11:18:32;;;;;;;0.60;0.60;;;9.90;83.70;;;;;;5004010;28;20214;-76
2023/04/01 11:21:42;;;;;;;0.60;0.60;;;9.90;85.60;;;;;;5015461;28;20565;-74
2023/04/01 11:24:27;;;;;;;0.60;0.60;;;9.90;83.50;;;;;;5015763;28;20321;-75
2023/04/01 11:27:07;;;;;;;0.60;0.60;;;9.80;83.10;;;;;;5014495;28;20657;-75
2023/04/01 11:29:36;;;;;;;0.60;0.60;;;10.00;85.40;;;;;;5014757;28;20213;-75
2023/04/01 11:32:22;;;;;;;0.60;0.60;;;10.40;84.30;;;;;;4997154;28;20197;-75
2023/04/01 11:34:56;;;;;;;0.70;0.70;;;10.30;83.70;;;;;;4998108;28;20284;-75
2023/04/01 11:37:49;;;;;;;0.50;0.50;;;10.30;84.00;;;;;;4997130;28;20272;-75
2023/04/01 11:40:35;;;;;;;0.60;0.60;;;10.30;83.50;;;;;;4974807;28;20211;-75
2023/04/01 11:43:43;;;;;;;0.50;0.50;;;10.30;85.50;;;;;;5014982;28;20232;-75
2023/04/01 11:46:19;;;;;;;0.50;0.50;;;10.70;85.20;;;;;;5014722;28;20666;-75
2023/04/01 11:49:06;;;;;;;0.50;0.50;;;10.90;81.50;;;;;;4997127;28;20214;-75
2023/04/01 11:52:06;;;;;;;0.60;0.60;;;11.00;84.40;;;;;;5014662;28;20203;-75
2023/04/01 11:55:09;;;;;;;0.50;0.50;;;10.70;81.20;;;;;;5014946;28;20619;-75
2023/04/01 11:57:43;;;;;;;0.70;0.70;;;10.60;86.60;;;;;;5013283;28;20334;-74
2023/04/01 12:00:36;;;;;;;0.57;0.57;;;10.90;80.80;;;;;;5014811;28;20195;-75
2023/04/01 12:03:21;;;;;;;0.60;0.60;;;11.00;83.90;;;;;;5013073;28;20709;-75
2023/04/01 12:06:11;;;;;;;0.50;0.50;;;11.20;85.70;;;;;;5014549;28;20203;-75
2023/04/01 12:08:42;;;;;;;0.50;0.50;;;11.30;80.80;;;;;;5013221;28;20274;-74
2023/04/01 12:11:08;;;;;;;0.50;0.50;;;11.50;83.00;;;;;;5013314;28;20246;-74
2023/04/01 12:13:53;;;;;;;0.50;0.50;;;11.40;77.70;;;;;;5011250;28;20219;-75
2023/04/01 12:16:44;;;;;;;0.50;0.50;;;11.20;80.80;;;;;;4994780;28;20199;-74
2023/04/01 12:19:57;;;;;;;0.50;0.50;;;11.10;79.60;;;;;;5011915;28;20195;-75
2023/04/01 12:22:41;;;;;;;0.60;0.60;;;10.70;82.80;;;;;;5009455;28;20783;-75
2023/04/01 12:25:16;;;;;;;0.50;0.50;;;10.90;81.20;;;;;;4996639;28;20191;-75
2023/04/01 12:28:00;;;;;;;0.60;0.60;;;11.00;83.10;;;;;;5014259;28;20681;-74
2023/04/01 12:33:55;;;;;;;0.60;0.60;;;10.80;82.60;;;;;;5014154;28;20210;-73
2023/04/01 12:36:40;;;;;;;0.50;0.50;;;11.20;80.00;;;;;;5012830;28;20218;-74
2023/04/01 12:39:28;;;;;;;0.50;0.50;;;10.90;82.20;;;;;;5013205;28;20198;-74
2023/04/01 12:42:26;;;;;;;0.50;0.50;;;10.80;81.80;;;;;;5013474;28;20202;-74
2023/04/01 12:44:55;;;;;;;0.50;0.50;;;10.90;80.80;;;;;;5015601;28;20194;-74
2023/04/01 12:47:39;;;;;;;0.50;0.50;;;10.50;81.60;;;;;;5014050;28;20685;-75
2023/04/01 12:54:04;;;;;;;0.50;0.50;;;11.50;80.80;;;;;;4971128;28;20204;-74
2023/04/01 12:57:05;;;;;;;0.50;0.50;;;11.40;78.00;;;;;;4969803;23;20957;-76
2023/04/01 13:00:03;;;;;;;0.50;0.50;;;11.20;80.90;;;;;;4993480;28;20215;-75
2023/04/01 13:02:57;;;;;;;0.90;0.90;;;11.10;77.30;;;;;;4993499;28;20655;-75
2023/04/01 13:05:26;;;;;;;0.60;0.60;;;10.70;79.00;;;;;;4977729;28;20204;-76
2023/04/01 13:08:02;;;;;;;0.50;0.50;;;10.80;81.00;;;;;;4993641;28;20215;-76
2023/04/01 13:10:33;;;;;;;0.50;0.50;;;11.10;83.40;;;;;;4985302;28;20651;-75
2023/04/01 13:13:18;;;;;;;0.50;0.50;;;11.50;79.10;;;;;;4974233;28;20200;-75
2023/04/01 13:15:52;;;;;;;0.50;0.50;;;11.40;75.80;;;;;;4974273;28;20205;-75
2023/04/01 13:18:44;;;;;;;0.50;0.50;;;11.30;79.30;;;;;;4982340;28;20534;-75
2023/04/01 13:21:13;;;;;;;0.50;0.50;;;11.60;80.20;;;;;;4992304;28;20223;-75
2023/04/01 13:23:51;;;;;;;0.50;0.50;;;11.60;77.80;;;;;;4993447;28;20196;-75
2023/04/01 13:26:48;;;;;;;0.75;0.75;;;11.30;76.10;;;;;;4992192;28;20568;-75
2023/04/01 13:29:46;;;;;;;0.50;0.50;;;11.30;78.60;;;;;;4993348;28;20562;-75
2023/04/01 13:32:29;;;;;;;0.60;0.60;;;10.90;79.30;;;;;;4992066;28;20253;-75
2023/04/01 13:35:16;;;;;;;0.50;0.50;;;10.70;82.20;;;;;;4993454;28;20278;-75
2023/04/01 13:37:52;;;;;;;0.52;0.52;;;10.80;79.80;;;;;;4993173;28;20184;-76
2023/04/01 13:40:27;;;;;;;0.40;0.40;;;11.10;80.70;;;;;;4991991;28;20233;-75
2023/04/01 13:43:14;;;;;;;0.50;0.50;;;11.40;79.10;;;;;;4993343;28;20187;-76
2023/04/01 13:46:00;;;;;;;0.50;0.50;;;11.40;78.30;;;;;;4992973;28;20685;-76
2023/04/01 13:48:29;;;;;;;0.57;0.57;;;11.20;80.30;;;;;;4993600;28;20198;-75
2023/04/01 13:51:01;;;;;;;0.60;0.60;;;11.20;79.80;;;;;;4993518;28;20172;-76